Neva Lux — UGZF — position and weather

sailwx.info

Track history (hours):
 
Tides and Currents Weather Stations Pressure Air Temp Water Temp Dewpoint Dewpoint Depression Visibility Wind Speed Wind Dir Waves Ship Positions

Neva Lux

Last reported at 2017-Jun-24 01:30 UTC. Time now 2017-Jun-24 01:55 UTC.
Position N 59°53' E 030°13'.

Length 65 m; draft 3.3 m.

Type: Pleasure craft. MMSI: 273426540.

Date/timePositionNaut miles runAvg speedWind from/ knotsBaromVisibWave heightAir tempDewpointWater temp
2017-Jun-24 01:30N 59°53' E 030°13'0 0.0
2017-Jun-24 01:01N 59°53' E 030°13'0 0.0
2017-Jun-24 00:31N 59°53' E 030°13'0 0.0
2017-Jun-24 00:00N 59°53' E 030°13'0 0.0
2017-Jun-23 23:30N 59°53' E 030°13'0 0.0
2017-Jun-23 23:00N 59°53' E 030°13'0 0.0
2017-Jun-23 22:30N 59°53' E 030°13'0 0.0
2017-Jun-23 22:00N 59°53' E 030°13'0 0.0
2017-Jun-23 21:30N 59°53' E 030°13'0 0.0
2017-Jun-23 21:00N 59°53' E 030°13'1 1.9
2017-Jun-23 20:30N 59°53' E 030°12'1 2.0
2017-Jun-23 20:00N 59°52' E 030°12'0 0.0
2017-Jun-23 19:30N 59°52' E 030°12'0 0.0
2017-Jun-23 19:00N 59°52' E 030°12'0 0.0
2017-Jun-23 18:30N 59°52' E 030°12'0 0.0
2017-Jun-23 18:01N 59°52' E 030°12'0 0.0
2017-Jun-23 17:30N 59°52' E 030°12'0 0.0
2017-Jun-23 17:00N 59°52' E 030°12'0 0.0
2017-Jun-23 16:30N 59°52' E 030°12'0 0.1
2017-Jun-23 16:00N 59°52' E 030°13'0 1.0
2017-Jun-23 15:30N 59°53' E 030°13'0 0.4
2017-Jun-23 15:00N 59°53' E 030°13'0 0.0
2017-Jun-23 14:00N 59°53' E 030°13'0 0.0
2017-Jun-23 13:30N 59°53' E 030°13'0 0.0
2017-Jun-23 13:00N 59°53' E 030°13'0 0.0
2017-Jun-23 12:30N 59°53' E 030°13'0 0.0
2017-Jun-23 12:00N 59°53' E 030°13'0 0.0
2017-Jun-23 11:30N 59°53' E 030°13'0 0.0
2017-Jun-23 11:00N 59°53' E 030°13'0 0.0
2017-Jun-23 10:30N 59°53' E 030°13'0 0.0
2017-Jun-23 10:00N 59°53' E 030°13'3 0.1
2017-Jun-22 13:53N 59°56' E 030°14'0 0.0
2017-Jun-22 13:30N 59°56' E 030°14'0 0.0
2017-Jun-22 13:00N 59°56' E 030°14'0 0.0
2017-Jun-22 12:30N 59°56' E 030°14'0 0.0
2017-Jun-22 12:00N 59°56' E 030°14'0 0.0
2017-Jun-22 11:30N 59°56' E 030°14'0 0.0
2017-Jun-22 11:00N 59°56' E 030°14'0 0.0
2017-Jun-22 10:30N 59°56' E 030°14'0 0.1
2017-Jun-22 10:00N 59°55' E 030°14'2 3.1
2017-Jun-22 09:30N 59°54' E 030°13'1 2.6
2017-Jun-22 09:00N 59°53' E 030°13'0 0.3
2017-Jun-22 08:30N 59°53' E 030°13'0 0.0
2017-Jun-22 08:00N 59°53' E 030°13'0 0.0
2017-Jun-22 07:30N 59°53' E 030°13'0 0.0
2017-Jun-22 07:00N 59°53' E 030°13'0 0.0
2017-Jun-22 06:30N 59°53' E 030°13'0 0.0
2017-Jun-22 06:00N 59°53' E 030°13'0 0.0
2017-Jun-22 05:30N 59°53' E 030°13'0 0.0
2017-Jun-22 05:00N 59°53' E 030°13'0 0.0
2017-Jun-22 04:30N 59°53' E 030°13'0 0.0
2017-Jun-22 04:00N 59°53' E 030°13'0 0.0
2017-Jun-22 03:30N 59°53' E 030°13'0 0.0
2017-Jun-22 03:00N 59°53' E 030°13'0 0.0
2017-Jun-22 02:30N 59°53' E 030°13'0 0.0
2017-Jun-22 02:00N 59°53' E 030°13'0 0.0
2017-Jun-22 01:30N 59°53' E 030°13'0 0.0
2017-Jun-22 01:00N 59°53' E 030°13'0 0.0
2017-Jun-22 00:30N 59°53' E 030°13'0 0.0
2017-Jun-22 00:00N 59°53' E 030°13'0 0.0
2017-Jun-21 23:30N 59°53' E 030°13'0 0.0
2017-Jun-21 23:00N 59°53' E 030°13'0 0.0
2017-Jun-21 22:30N 59°53' E 030°13'0 0.0
2017-Jun-21 22:00N 59°53' E 030°13'0 0.0
2017-Jun-21 21:30N 59°53' E 030°13'0 0.0
2017-Jun-21 21:00N 59°53' E 030°13'0 0.0
2017-Jun-21 20:30N 59°53' E 030°13'0 0.0
2017-Jun-21 20:00N 59°53' E 030°13'0 0.0
2017-Jun-21 19:30N 59°53' E 030°13'0 0.0
2017-Jun-21 19:00N 59°53' E 030°13'0 0.0
2017-Jun-21 18:30N 59°53' E 030°13'0 0.0
2017-Jun-21 18:00N 59°53' E 030°13'0 0.0
2017-Jun-21 17:30N 59°53' E 030°13'0 0.0
2017-Jun-21 17:00N 59°53' E 030°13'0 0.0
2017-Jun-21 16:30N 59°53' E 030°13'0 0.0
2017-Jun-21 16:00N 59°53' E 030°13'0 0.0
2017-Jun-21 15:30N 59°53' E 030°13'0 0.0
2017-Jun-21 15:00N 59°53' E 030°13'0 0.0
2017-Jun-21 14:30N 59°53' E 030°13'1 0.6
2017-Jun-21 13:30N 59°53' E 030°12'0 0.0
2017-Jun-21 13:00N 59°53' E 030°12'0 0.0
2017-Jun-21 12:30N 59°53' E 030°12'0 0.0
2017-Jun-21 12:00N 59°53' E 030°12'0 0.0
2017-Jun-21 11:30N 59°53' E 030°12'0 0.0
2017-Jun-21 11:00N 59°53' E 030°12'0 0.1
2017-Jun-21 10:31N 59°53' E 030°12'1 1.3
2017-Jun-21 10:00N 59°53' E 030°13'0 0.1
2017-Jun-21 09:30N 59°53' E 030°13'0 0.0
2017-Jun-21 09:00N 59°53' E 030°13'0 0.0
2017-Jun-21 08:30N 59°53' E 030°13'0 0.0
2017-Jun-21 08:00N 59°53' E 030°13'0 0.0
2017-Jun-21 07:30N 59°53' E 030°13'0 0.0
2017-Jun-21 07:01N 59°53' E 030°13'0 0.0
2017-Jun-21 06:30N 59°53' E 030°13'0 0.0
2017-Jun-21 06:00N 59°53' E 030°13'0 0.0
2017-Jun-21 05:30N 59°53' E 030°13'0 0.0
2017-Jun-21 05:00N 59°53' E 030°13'0 0.0
2017-Jun-21 04:30N 59°53' E 030°13'0 0.0
2017-Jun-21 04:00N 59°53' E 030°13'0 0.0
2017-Jun-21 03:30N 59°53' E 030°13'0 0.0
2017-Jun-21 03:00N 59°53' E 030°13'0 0.0
2017-Jun-21 02:31N 59°53' E 030°13'0 0.0
2017-Jun-21 02:01N 59°53' E 030°13'0 0.0
2017-Jun-21 01:30N 59°53' E 030°13'0 0.0
2017-Jun-21 01:00N 59°53' E 030°13'0 0.0
2017-Jun-21 00:31N 59°53' E 030°13'0 0.0
2017-Jun-21 00:00N 59°53' E 030°13'0 0.1
2017-Jun-20 23:30N 59°53' E 030°13'2 4.0
2017-Jun-20 23:00N 59°55' E 030°14'0 0.9
2017-Jun-20 22:30N 59°55' E 030°15'0 0.0
2017-Jun-20 22:01N 59°55' E 030°15'0 0.0
2017-Jun-20 21:30N 59°55' E 030°15'0 0.0
2017-Jun-20 21:00N 59°55' E 030°15'0 0.0
2017-Jun-20 20:31N 59°55' E 030°15'0 0.0
2017-Jun-20 20:01N 59°55' E 030°15'0 0.0
2017-Jun-20 19:30N 59°55' E 030°15'0 0.0
2017-Jun-20 19:01N 59°55' E 030°15'0 0.0
2017-Jun-20 18:30N 59°55' E 030°15'0 0.0
2017-Jun-20 18:00N 59°55' E 030°15'2 3.4
2017-Jun-20 17:30N 59°54' E 030°13'1 2.0
2017-Jun-20 17:00N 59°53' E 030°13'0 0.0
2017-Jun-20 16:30N 59°53' E 030°13'0 0.0
2017-Jun-20 16:00N 59°53' E 030°13'0 0.0
2017-Jun-20 15:30N 59°53' E 030°13'0 0.0
2017-Jun-20 15:00N 59°53' E 030°13'0 0.0
2017-Jun-20 14:00N 59°53' E 030°13'0 0.0
2017-Jun-20 13:30N 59°53' E 030°13'0 0.0
2017-Jun-20 13:00N 59°53' E 030°13'0 0.0
2017-Jun-20 12:30N 59°53' E 030°13'0 0.0
2017-Jun-20 12:00N 59°53' E 030°13'0 0.0
2017-Jun-20 11:30N 59°53' E 030°13'0 0.0
2017-Jun-20 11:00N 59°53' E 030°13'0 0.0
2017-Jun-20 10:30N 59°53' E 030°13'0 0.0
2017-Jun-20 10:00N 59°53' E 030°13'0 0.0
2017-Jun-20 09:30N 59°53' E 030°13'0 0.0
2017-Jun-20 09:00N 59°53' E 030°13'0 0.0
2017-Jun-20 08:30N 59°53' E 030°13'0 0.0
2017-Jun-20 08:00N 59°53' E 030°13'0 0.0
2017-Jun-19 09:36N 59°53' E 030°13'0 0.0
2017-Jun-19 09:28N 59°53' E 030°13'0 0.0
2017-Jun-18 08:33N 59°53' E 030°13'0 0.0
2017-Jun-18 08:15N 59°53' E 030°13'0 0.0
2017-Jun-18 08:00N 59°53' E 030°13'0 0.0
2017-Jun-18 07:30N 59°53' E 030°13'0 0.0
2017-Jun-18 07:00N 59°53' E 030°13'0 0.0
2017-Jun-18 06:30N 59°53' E 030°13'0 0.0
2017-Jun-18 06:00N 59°53' E 030°13'0 0.0
2017-Jun-18 05:30N 59°53' E 030°13'0 0.0
2017-Jun-18 05:00N 59°53' E 030°13'0 0.0
2017-Jun-18 04:30N 59°53' E 030°13'0 0.0
2017-Jun-18 04:00N 59°53' E 030°13'0 0.0
2017-Jun-18 03:30N 59°53' E 030°13'0 0.0
2017-Jun-18 03:00N 59°53' E 030°13'0 0.0
2017-Jun-18 02:30N 59°53' E 030°13'0 0.0
2017-Jun-18 02:01N 59°53' E 030°13'0 0.0
2017-Jun-18 01:30N 59°53' E 030°13'0 0.0
2017-Jun-18 01:00N 59°53' E 030°13'0 0.0
2017-Jun-18 00:30N 59°53' E 030°13'0 0.0
2017-Jun-18 00:00N 59°53' E 030°13'0 0.0
2017-Jun-17 23:30N 59°53' E 030°13'0 0.0
2017-Jun-17 23:00N 59°53' E 030°13'0 0.0
2017-Jun-17 22:30N 59°53' E 030°13'0 0.0
2017-Jun-17 22:00N 59°53' E 030°13'0 0.0
2017-Jun-17 21:30N 59°53' E 030°13'0 0.0
2017-Jun-17 21:00N 59°53' E 030°13'0 0.0
2017-Jun-17 20:30N 59°53' E 030°13'0 0.0
2017-Jun-17 20:01N 59°53' E 030°13'0 0.0
2017-Jun-17 19:30N 59°53' E 030°13'0 0.0
2017-Jun-17 19:00N 59°53' E 030°13'0 0.0
2017-Jun-17 18:30N 59°53' E 030°13'0 0.0
2017-Jun-17 18:00N 59°53' E 030°13'0 0.0
2017-Jun-17 17:30N 59°53' E 030°13'0 0.0
2017-Jun-17 17:00N 59°53' E 030°13'0 0.0
2017-Jun-17 16:30N 59°53' E 030°13'0 0.0
2017-Jun-17 16:01N 59°53' E 030°13'0 0.0
2017-Jun-17 15:30N 59°53' E 030°13'0 0.0
2017-Jun-17 15:01N 59°53' E 030°13'0 0.0
2017-Jun-17 14:01N 59°53' E 030°13'0 0.0
2017-Jun-17 13:31N 59°53' E 030°13'0 0.0
2017-Jun-17 13:01N 59°53' E 030°13'0 0.0
2017-Jun-17 12:30N 59°53' E 030°13'0 0.0
2017-Jun-17 12:00N 59°53' E 030°13'0 0.0
2017-Jun-17 11:30N 59°53' E 030°13'0 0.0
2017-Jun-17 11:00N 59°53' E 030°13'0 0.0
2017-Jun-17 10:31N 59°53' E 030°13'0 0.0
2017-Jun-17 10:00N 59°53' E 030°13'0 0.0
2017-Jun-17 09:31N 59°53' E 030°13'0 0.0
2017-Jun-17 09:01N 59°53' E 030°13'0 0.0
2017-Jun-17 08:30N 59°53' E 030°13'0 0.0
2017-Jun-17 08:00N 59°53' E 030°13'0 0.0
2017-Jun-17 07:30N 59°53' E 030°13'0 0.0
2017-Jun-17 07:01N 59°53' E 030°13'0 0.0
2017-Jun-17 06:31N 59°53' E 030°13'0 0.0
2017-Jun-17 06:00N 59°53' E 030°13'0 0.0
2017-Jun-17 05:30N 59°53' E 030°13'0 0.0
2017-Jun-17 05:00N 59°53' E 030°13'0 0.0
2017-Jun-17 04:31N 59°53' E 030°13'0 0.0
2017-Jun-17 04:01N 59°53' E 030°13'0 0.0
2017-Jun-17 03:30N 59°53' E 030°13'0 0.0
2017-Jun-17 03:00N 59°53' E 030°13'0 0.0
2017-Jun-17 02:30N 59°53' E 030°13'0 0.0
2017-Jun-17 02:01N 59°53' E 030°13'0 0.0
2017-Jun-17 01:31N 59°53' E 030°13'0 0.0
2017-Jun-17 01:01N 59°53' E 030°13'0 0.0
2017-Jun-17 00:31N 59°53' E 030°13'0 0.0
2017-Jun-17 00:01N 59°53' E 030°13'0 0.0
2017-Jun-16 23:31N 59°53' E 030°13'0 0.0
2017-Jun-16 23:01N 59°53' E 030°13'0 0.0
2017-Jun-16 22:31N 59°53' E 030°13'0 0.0
2017-Jun-16 22:01N 59°53' E 030°13'0 0.0
2017-Jun-16 21:31N 59°53' E 030°13'0 0.0
2017-Jun-16 21:00N 59°53' E 030°13'0 0.0
2017-Jun-16 20:30N 59°53' E 030°13'0 0.0
2017-Jun-16 20:00N 59°53' E 030°13'0 0.0
2017-Jun-16 19:31N 59°53' E 030°13'0 0.0
2017-Jun-16 19:01N 59°53' E 030°13'0 0.0
2017-Jun-16 18:31N 59°53' E 030°13'0 0.0
2017-Jun-16 18:00N 59°53' E 030°13'0 0.0
2017-Jun-16 17:31N 59°53' E 030°13'0 0.0
2017-Jun-16 17:01N 59°53' E 030°13'0 0.0
2017-Jun-16 16:30N 59°53' E 030°13'0 0.0
2017-Jun-16 16:01N 59°53' E 030°13'0 0.0
2017-Jun-16 15:31N 59°53' E 030°13'0 0.0
2017-Jun-16 15:01N 59°53' E 030°13'0 0.0
2017-Jun-16 14:31N 59°53' E 030°13'0 0.0
2017-Jun-16 13:31N 59°53' E 030°13'0 0.0
2017-Jun-16 13:00N 59°53' E 030°13'0 0.0
2017-Jun-16 12:30N 59°53' E 030°13'0 0.0
2017-Jun-16 12:00N 59°53' E 030°13'0 0.0
2017-Jun-16 11:31N 59°53' E 030°13'0 0.1
2017-Jun-16 11:00N 59°53' E 030°13'1 1.3
2017-Jun-16 10:31N 59°53' E 030°13'0 0.0
2017-Jun-16 10:01N 59°53' E 030°13'0 0.0
2017-Jun-16 09:30N 59°53' E 030°13'0 0.0
2017-Jun-16 09:01N 59°53' E 030°13'0 0.0
2017-Jun-16 08:30N 59°53' E 030°13'0 0.0
2017-Jun-16 08:00N 59°53' E 030°13'0 0.0
2017-Jun-16 07:31N 59°53' E 030°13'0 0.0
2017-Jun-16 07:01N 59°53' E 030°13'0 0.0
2017-Jun-16 06:31N 59°53' E 030°13'0 0.0
2017-Jun-16 06:00N 59°53' E 030°13'0 0.0
2017-Jun-16 05:30N 59°53' E 030°13'1 1.3
2017-Jun-16 05:00N 59°53' E 030°13'0 0.0
2017-Jun-16 04:30N 59°53' E 030°13'0 0.0
2017-Jun-16 04:01N 59°53' E 030°13'0 0.0
2017-Jun-16 03:30N 59°53' E 030°13'0 0.0
2017-Jun-16 03:01N 59°53' E 030°13'0 0.0
2017-Jun-16 02:30N 59°53' E 030°13'0 0.0
2017-Jun-16 02:01N 59°53' E 030°13'0 0.0
2017-Jun-16 01:30N 59°53' E 030°13'0 0.0
2017-Jun-16 01:01N 59°53' E 030°13'0 0.0
2017-Jun-16 00:31N 59°53' E 030°13'0 0.0
2017-Jun-16 00:00N 59°53' E 030°13'0 0.0
2017-Jun-15 23:31N 59°53' E 030°13'0 0.0
2017-Jun-15 23:00N 59°53' E 030°13'0 0.0
2017-Jun-15 22:31N 59°53' E 030°13'0 0.0
2017-Jun-15 22:01N 59°53' E 030°13'0 0.0
2017-Jun-15 21:30N 59°53' E 030°13'0 0.0
2017-Jun-15 21:00N 59°53' E 030°13'0 0.0
2017-Jun-15 20:30N 59°53' E 030°13'0 0.0
2017-Jun-15 20:01N 59°53' E 030°13'0 0.0
2017-Jun-15 19:31N 59°53' E 030°13'0 0.0
2017-Jun-15 19:00N 59°53' E 030°13'0 0.0
2017-Jun-15 18:31N 59°53' E 030°13'0 0.0
2017-Jun-15 18:00N 59°53' E 030°13'0 0.0
2017-Jun-15 17:31N 59°53' E 030°13'0 0.0
2017-Jun-15 17:01N 59°53' E 030°13'0 0.0
2017-Jun-15 16:31N 59°53' E 030°13'1 1.4
2017-Jun-15 16:01N 59°53' E 030°12'2 4.4
2017-Jun-15 15:31N 59°55' E 030°12'3 5.9
2017-Jun-15 15:00N 59°57' E 030°07'2 4.4
2017-Jun-15 14:30N 59°57' E 030°11'0 0.0
2017-Jun-15 13:30N 59°57' E 030°11'0 0.0
2017-Jun-15 13:00N 59°57' E 030°11'0 0.0
2017-Jun-15 12:30N 59°57' E 030°11'0 0.0
2017-Jun-15 12:00N 59°57' E 030°11'0 0.0
2017-Jun-15 11:30N 59°57' E 030°11'0 0.0
2017-Jun-15 11:00N 59°57' E 030°11'0 0.0
2017-Jun-15 10:30N 59°57' E 030°11'0 0.0
2017-Jun-15 10:00N 59°57' E 030°11'0 0.0
2017-Jun-15 09:30N 59°57' E 030°11'0 0.0
2017-Jun-15 09:00N 59°57' E 030°11'0 0.0
2017-Jun-15 08:30N 59°57' E 030°11'0 0.0
2017-Jun-15 08:00N 59°57' E 030°11'0 0.0
2017-Jun-15 07:30N 59°57' E 030°11'0 0.0
2017-Jun-15 07:00N 59°57' E 030°11'0 0.0
2017-Jun-15 06:31N 59°57' E 030°11'1 2.8
2017-Jun-15 06:01N 59°57' E 030°08'5 9.3
2017-Jun-15 05:31N 59°55' E 029°60'5 9.0
2017-Jun-15 05:00N 59°57' E 029°52'0 0.1
2017-Jun-15 04:30N 59°57' E 029°51'0 0.0
2017-Jun-15 04:00N 59°57' E 029°51'0 0.0
2017-Jun-15 03:30N 59°57' E 029°51'0 0.0
2017-Jun-15 03:01N 59°57' E 029°51'0 0.0
2017-Jun-15 02:24N 59°57' E 029°51'0 0.0
2017-Jun-15 02:01N 59°57' E 029°51'0 0.0
2017-Jun-15 01:30N 59°57' E 029°51'0 0.0
2017-Jun-15 00:58N 59°57' E 029°51'0 0.0
2017-Jun-14 22:49N 59°57' E 029°51'0 0.0
2017-Jun-14 22:18N 59°57' E 029°51'0 0.0
2017-Jun-14 22:00N 59°57' E 029°51'0 0.0
2017-Jun-14 21:30N 59°57' E 029°52'0 0.0
2017-Jun-14 21:00N 59°57' E 029°52'0 0.0
2017-Jun-14 20:30N 59°57' E 029°52'0 0.0
2017-Jun-14 20:01N 59°57' E 029°52'0 0.0
2017-Jun-14 19:30N 59°57' E 029°52'0 0.0
2017-Jun-14 19:00N 59°57' E 029°52'1 1.1
2017-Jun-14 18:30N 59°57' E 029°52'5 9.6
2017-Jun-14 18:01N 59°55' E 030°01'4 8.6
2017-Jun-14 17:30N 59°53' E 030°09'2 4.7
2017-Jun-14 17:00N 59°53' E 030°13'0 0.0
2017-Jun-14 16:31N 59°53' E 030°13'0 0.0
2017-Jun-14 16:00N 59°53' E 030°13'0 0.0
2017-Jun-14 15:31N 59°53' E 030°13'0 0.0
2017-Jun-14 15:01N 59°53' E 030°13'0 0.0
2017-Jun-14 14:00N 59°53' E 030°13'0 0.0
2017-Jun-14 13:30N 59°53' E 030°13'0 0.0
2017-Jun-14 13:01N 59°53' E 030°13'0 0.0
2017-Jun-14 12:31N 59°53' E 030°13'0 0.0
2017-Jun-14 12:00N 59°53' E 030°13'0 0.0
2017-Jun-14 11:30N 59°53' E 030°13'0 0.0
2017-Jun-14 11:00N 59°53' E 030°13'0 0.0
2017-Jun-14 10:31N 59°53' E 030°13'0 0.0
2017-Jun-14 10:00N 59°53' E 030°13'0 0.0
2017-Jun-14 09:31N 59°53' E 030°13'0 0.0
2017-Jun-14 09:00N 59°53' E 030°13'0 0.0
2017-Jun-14 08:30N 59°53' E 030°13'0 0.0
2017-Jun-14 08:01N 59°53' E 030°13'0 0.0
2017-Jun-14 07:31N 59°53' E 030°13'0 0.0
2017-Jun-14 07:00N 59°53' E 030°13'0 0.0
2017-Jun-14 06:31N 59°53' E 030°13'0 0.0
2017-Jun-14 05:59N 59°53' E 030°13'0 0.0
2017-Jun-14 05:30N 59°53' E 030°13'0 0.2
2017-Jun-14 05:00N 59°53' E 030°13'0 0.0
2017-Jun-14 04:31N 59°53' E 030°13'0 0.0
2017-Jun-14 04:01N 59°53' E 030°13'0 0.0
2017-Jun-14 03:30N 59°53' E 030°13'0 0.0
2017-Jun-14 02:59N 59°53' E 030°13'0 0.0
2017-Jun-14 02:31N 59°53' E 030°13'0 0.0
2017-Jun-14 02:00N 59°53' E 030°13'  
Track history (hours):
 
Tides and Currents Weather Stations Pressure Air Temp Water Temp Dewpoint Dewpoint Depression Visibility Wind Speed Wind Dir Waves Ship Positions

Neva Lux

Last reported at 2017-Jun-24 01:30 UTC. Time now 2017-Jun-24 01:55 UTC.
Position N 59°53' E 030°13'.

Length 65 m; draft 3.3 m.

Type: Pleasure craft. MMSI: 273426540.

Date/timePositionNaut miles runAvg speedWind from/ knotsBaromVisibWave heightAir tempDewpointWater temp
2017-Jun-24 01:30N 59°53' E 030°13'0 0.0
2017-Jun-24 01:01N 59°53' E 030°13'0 0.0
2017-Jun-24 00:31N 59°53' E 030°13'0 0.0
2017-Jun-24 00:00N 59°53' E 030°13'0 0.0
2017-Jun-23 23:30N 59°53' E 030°13'0 0.0
2017-Jun-23 23:00N 59°53' E 030°13'0 0.0
2017-Jun-23 22:30N 59°53' E 030°13'0 0.0
2017-Jun-23 22:00N 59°53' E 030°13'0 0.0
2017-Jun-23 21:30N 59°53' E 030°13'0 0.0
2017-Jun-23 21:00N 59°53' E 030°13'1 1.9
2017-Jun-23 20:30N 59°53' E 030°12'1 2.0
2017-Jun-23 20:00N 59°52' E 030°12'0 0.0
2017-Jun-23 19:30N 59°52' E 030°12'0 0.0
2017-Jun-23 19:00N 59°52' E 030°12'0 0.0
2017-Jun-23 18:30N 59°52' E 030°12'0 0.0
2017-Jun-23 18:01N 59°52' E 030°12'0 0.0
2017-Jun-23 17:30N 59°52' E 030°12'0 0.0
2017-Jun-23 17:00N 59°52' E 030°12'0 0.0
2017-Jun-23 16:30N 59°52' E 030°12'0 0.1
2017-Jun-23 16:00N 59°52' E 030°13'0 1.0
2017-Jun-23 15:30N 59°53' E 030°13'0 0.4
2017-Jun-23 15:00N 59°53' E 030°13'0 0.0
2017-Jun-23 14:00N 59°53' E 030°13'0 0.0
2017-Jun-23 13:30N 59°53' E 030°13'0 0.0
2017-Jun-23 13:00N 59°53' E 030°13'0 0.0
2017-Jun-23 12:30N 59°53' E 030°13'0 0.0
2017-Jun-23 12:00N 59°53' E 030°13'0 0.0
2017-Jun-23 11:30N 59°53' E 030°13'0 0.0
2017-Jun-23 11:00N 59°53' E 030°13'0 0.0
2017-Jun-23 10:30N 59°53' E 030°13'0 0.0
2017-Jun-23 10:00N 59°53' E 030°13'3 0.1
2017-Jun-22 13:53N 59°56' E 030°14'0 0.0
2017-Jun-22 13:30N 59°56' E 030°14'0 0.0
2017-Jun-22 13:00N 59°56' E 030°14'0 0.0
2017-Jun-22 12:30N 59°56' E 030°14'0 0.0
2017-Jun-22 12:00N 59°56' E 030°14'0 0.0
2017-Jun-22 11:30N 59°56' E 030°14'0 0.0
2017-Jun-22 11:00N 59°56' E 030°14'0 0.0
2017-Jun-22 10:30N 59°56' E 030°14'0 0.1
2017-Jun-22 10:00N 59°55' E 030°14'2 3.1
2017-Jun-22 09:30N 59°54' E 030°13'1 2.6
2017-Jun-22 09:00N 59°53' E 030°13'0 0.3
2017-Jun-22 08:30N 59°53' E 030°13'0 0.0
2017-Jun-22 08:00N 59°53' E 030°13'0 0.0
2017-Jun-22 07:30N 59°53' E 030°13'0 0.0
2017-Jun-22 07:00N 59°53' E 030°13'0 0.0
2017-Jun-22 06:30N 59°53' E 030°13'0 0.0
2017-Jun-22 06:00N 59°53' E 030°13'0 0.0
2017-Jun-22 05:30N 59°53' E 030°13'0 0.0
2017-Jun-22 05:00N 59°53' E 030°13'0 0.0
2017-Jun-22 04:30N 59°53' E 030°13'0 0.0
2017-Jun-22 04:00N 59°53' E 030°13'0 0.0
2017-Jun-22 03:30N 59°53' E 030°13'0 0.0
2017-Jun-22 03:00N 59°53' E 030°13'0 0.0
2017-Jun-22 02:30N 59°53' E 030°13'0 0.0
2017-Jun-22 02:00N 59°53' E 030°13'0 0.0
2017-Jun-22 01:30N 59°53' E 030°13'0 0.0
2017-Jun-22 01:00N 59°53' E 030°13'0 0.0
2017-Jun-22 00:30N 59°53' E 030°13'0 0.0
2017-Jun-22 00:00N 59°53' E 030°13'0 0.0
2017-Jun-21 23:30N 59°53' E 030°13'0 0.0
2017-Jun-21 23:00N 59°53' E 030°13'0 0.0
2017-Jun-21 22:30N 59°53' E 030°13'0 0.0
2017-Jun-21 22:00N 59°53' E 030°13'0 0.0
2017-Jun-21 21:30N 59°53' E 030°13'0 0.0
2017-Jun-21 21:00N 59°53' E 030°13'0 0.0
2017-Jun-21 20:30N 59°53' E 030°13'0 0.0
2017-Jun-21 20:00N 59°53' E 030°13'0 0.0
2017-Jun-21 19:30N 59°53' E 030°13'0 0.0
2017-Jun-21 19:00N 59°53' E 030°13'0 0.0
2017-Jun-21 18:30N 59°53' E 030°13'0 0.0
2017-Jun-21 18:00N 59°53' E 030°13'0 0.0
2017-Jun-21 17:30N 59°53' E 030°13'0 0.0
2017-Jun-21 17:00N 59°53' E 030°13'0 0.0
2017-Jun-21 16:30N 59°53' E 030°13'0 0.0
2017-Jun-21 16:00N 59°53' E 030°13'0 0.0
2017-Jun-21 15:30N 59°53' E 030°13'0 0.0
2017-Jun-21 15:00N 59°53' E 030°13'0 0.0
2017-Jun-21 14:30N 59°53' E 030°13'1 0.6
2017-Jun-21 13:30N 59°53' E 030°12'0 0.0
2017-Jun-21 13:00N 59°53' E 030°12'0 0.0
2017-Jun-21 12:30N 59°53' E 030°12'0 0.0
2017-Jun-21 12:00N 59°53' E 030°12'0 0.0
2017-Jun-21 11:30N 59°53' E 030°12'0 0.0
2017-Jun-21 11:00N 59°53' E 030°12'0 0.1
2017-Jun-21 10:31N 59°53' E 030°12'1 1.3
2017-Jun-21 10:00N 59°53' E 030°13'0 0.1
2017-Jun-21 09:30N 59°53' E 030°13'0 0.0
2017-Jun-21 09:00N 59°53' E 030°13'0 0.0
2017-Jun-21 08:30N 59°53' E 030°13'0 0.0
2017-Jun-21 08:00N 59°53' E 030°13'0 0.0
2017-Jun-21 07:30N 59°53' E 030°13'0 0.0
2017-Jun-21 07:01N 59°53' E 030°13'0 0.0
2017-Jun-21 06:30N 59°53' E 030°13'0 0.0
2017-Jun-21 06:00N 59°53' E 030°13'0 0.0
2017-Jun-21 05:30N 59°53' E 030°13'0 0.0
2017-Jun-21 05:00N 59°53' E 030°13'0 0.0
2017-Jun-21 04:30N 59°53' E 030°13'0 0.0
2017-Jun-21 04:00N 59°53' E 030°13'0 0.0
2017-Jun-21 03:30N 59°53' E 030°13'0 0.0
2017-Jun-21 03:00N 59°53' E 030°13'0 0.0
2017-Jun-21 02:31N 59°53' E 030°13'0 0.0
2017-Jun-21 02:01N 59°53' E 030°13'0 0.0
2017-Jun-21 01:30N 59°53' E 030°13'0 0.0
2017-Jun-21 01:00N 59°53' E 030°13'0 0.0
2017-Jun-21 00:31N 59°53' E 030°13'0 0.0
2017-Jun-21 00:00N 59°53' E 030°13'0 0.1
2017-Jun-20 23:30N 59°53' E 030°13'2 4.0
2017-Jun-20 23:00N 59°55' E 030°14'0 0.9
2017-Jun-20 22:30N 59°55' E 030°15'0 0.0
2017-Jun-20 22:01N 59°55' E 030°15'0 0.0
2017-Jun-20 21:30N 59°55' E 030°15'0 0.0
2017-Jun-20 21:00N 59°55' E 030°15'0 0.0
2017-Jun-20 20:31N 59°55' E 030°15'0 0.0
2017-Jun-20 20:01N 59°55' E 030°15'0 0.0
2017-Jun-20 19:30N 59°55' E 030°15'0 0.0
2017-Jun-20 19:01N 59°55' E 030°15'0 0.0
2017-Jun-20 18:30N 59°55' E 030°15'0 0.0
2017-Jun-20 18:00N 59°55' E 030°15'2 3.4
2017-Jun-20 17:30N 59°54' E 030°13'1 2.0
2017-Jun-20 17:00N 59°53' E 030°13'0 0.0
2017-Jun-20 16:30N 59°53' E 030°13'0 0.0
2017-Jun-20 16:00N 59°53' E 030°13'0 0.0
2017-Jun-20 15:30N 59°53' E 030°13'0 0.0
2017-Jun-20 15:00N 59°53' E 030°13'0 0.0
2017-Jun-20 14:00N 59°53' E 030°13'0 0.0
2017-Jun-20 13:30N 59°53' E 030°13'0 0.0
2017-Jun-20 13:00N 59°53' E 030°13'0 0.0
2017-Jun-20 12:30N 59°53' E 030°13'0 0.0
2017-Jun-20 12:00N 59°53' E 030°13'0 0.0
2017-Jun-20 11:30N 59°53' E 030°13'0 0.0
2017-Jun-20 11:00N 59°53' E 030°13'0 0.0
2017-Jun-20 10:30N 59°53' E 030°13'0 0.0
2017-Jun-20 10:00N 59°53' E 030°13'0 0.0
2017-Jun-20 09:30N 59°53' E 030°13'0 0.0
2017-Jun-20 09:00N 59°53' E 030°13'0 0.0
2017-Jun-20 08:30N 59°53' E 030°13'0 0.0
2017-Jun-20 08:00N 59°53' E 030°13'0 0.0
2017-Jun-19 09:36N 59°53' E 030°13'0 0.0
2017-Jun-19 09:28N 59°53' E 030°13'0 0.0
2017-Jun-18 08:33N 59°53' E 030°13'0 0.0
2017-Jun-18 08:15N 59°53' E 030°13'0 0.0
2017-Jun-18 08:00N 59°53' E 030°13'0 0.0
2017-Jun-18 07:30N 59°53' E 030°13'0 0.0
2017-Jun-18 07:00N 59°53' E 030°13'0 0.0
2017-Jun-18 06:30N 59°53' E 030°13'0 0.0
2017-Jun-18 06:00N 59°53' E 030°13'0 0.0
2017-Jun-18 05:30N 59°53' E 030°13'0 0.0
2017-Jun-18 05:00N 59°53' E 030°13'0 0.0
2017-Jun-18 04:30N 59°53' E 030°13'0 0.0
2017-Jun-18 04:00N 59°53' E 030°13'0 0.0
2017-Jun-18 03:30N 59°53' E 030°13'0 0.0
2017-Jun-18 03:00N 59°53' E 030°13'0 0.0
2017-Jun-18 02:30N 59°53' E 030°13'0 0.0
2017-Jun-18 02:01N 59°53' E 030°13'0 0.0
2017-Jun-18 01:30N 59°53' E 030°13'0 0.0
2017-Jun-18 01:00N 59°53' E 030°13'0 0.0
2017-Jun-18 00:30N 59°53' E 030°13'0 0.0
2017-Jun-18 00:00N 59°53' E 030°13'0 0.0
2017-Jun-17 23:30N 59°53' E 030°13'0 0.0
2017-Jun-17 23:00N 59°53' E 030°13'0 0.0
2017-Jun-17 22:30N 59°53' E 030°13'0 0.0
2017-Jun-17 22:00N 59°53' E 030°13'0 0.0
2017-Jun-17 21:30N 59°53' E 030°13'0 0.0
2017-Jun-17 21:00N 59°53' E 030°13'0 0.0
2017-Jun-17 20:30N 59°53' E 030°13'0 0.0
2017-Jun-17 20:01N 59°53' E 030°13'0 0.0
2017-Jun-17 19:30N 59°53' E 030°13'0 0.0
2017-Jun-17 19:00N 59°53' E 030°13'0 0.0
2017-Jun-17 18:30N 59°53' E 030°13'0 0.0
2017-Jun-17 18:00N 59°53' E 030°13'0 0.0
2017-Jun-17 17:30N 59°53' E 030°13'0 0.0
2017-Jun-17 17:00N 59°53' E 030°13'0 0.0
2017-Jun-17 16:30N 59°53' E 030°13'0 0.0
2017-Jun-17 16:01N 59°53' E 030°13'0 0.0
2017-Jun-17 15:30N 59°53' E 030°13'0 0.0
2017-Jun-17 15:01N 59°53' E 030°13'0 0.0
2017-Jun-17 14:01N 59°53' E 030°13'0 0.0
2017-Jun-17 13:31N 59°53' E 030°13'0 0.0
2017-Jun-17 13:01N 59°53' E 030°13'0 0.0
2017-Jun-17 12:30N 59°53' E 030°13'0 0.0
2017-Jun-17 12:00N 59°53' E 030°13'0 0.0
2017-Jun-17 11:30N 59°53' E 030°13'0 0.0
2017-Jun-17 11:00N 59°53' E 030°13'0 0.0
2017-Jun-17 10:31N 59°53' E 030°13'0 0.0
2017-Jun-17 10:00N 59°53' E 030°13'0 0.0
2017-Jun-17 09:31N 59°53' E 030°13'0 0.0
2017-Jun-17 09:01N 59°53' E 030°13'0 0.0
2017-Jun-17 08:30N 59°53' E 030°13'0 0.0
2017-Jun-17 08:00N 59°53' E 030°13'0 0.0
2017-Jun-17 07:30N 59°53' E 030°13'0 0.0
2017-Jun-17 07:01N 59°53' E 030°13'0 0.0
2017-Jun-17 06:31N 59°53' E 030°13'0 0.0
2017-Jun-17 06:00N 59°53' E 030°13'0 0.0
2017-Jun-17 05:30N 59°53' E 030°13'0 0.0
2017-Jun-17 05:00N 59°53' E 030°13'0 0.0
2017-Jun-17 04:31N 59°53' E 030°13'0 0.0
2017-Jun-17 04:01N 59°53' E 030°13'0 0.0
2017-Jun-17 03:30N 59°53' E 030°13'0 0.0
2017-Jun-17 03:00N 59°53' E 030°13'0 0.0
2017-Jun-17 02:30N 59°53' E 030°13'0 0.0
2017-Jun-17 02:01N 59°53' E 030°13'0 0.0
2017-Jun-17 01:31N 59°53' E 030°13'0 0.0
2017-Jun-17 01:01N 59°53' E 030°13'0 0.0
2017-Jun-17 00:31N 59°53' E 030°13'0 0.0
2017-Jun-17 00:01N 59°53' E 030°13'0 0.0
2017-Jun-16 23:31N 59°53' E 030°13'0 0.0
2017-Jun-16 23:01N 59°53' E 030°13'0 0.0
2017-Jun-16 22:31N 59°53' E 030°13'0 0.0
2017-Jun-16 22:01N 59°53' E 030°13'0 0.0
2017-Jun-16 21:31N 59°53' E 030°13'0 0.0
2017-Jun-16 21:00N 59°53' E 030°13'0 0.0
2017-Jun-16 20:30N 59°53' E 030°13'0 0.0
2017-Jun-16 20:00N 59°53' E 030°13'0 0.0
2017-Jun-16 19:31N 59°53' E 030°13'0 0.0
2017-Jun-16 19:01N 59°53' E 030°13'0 0.0
2017-Jun-16 18:31N 59°53' E 030°13'0 0.0
2017-Jun-16 18:00N 59°53' E 030°13'0 0.0
2017-Jun-16 17:31N 59°53' E 030°13'0 0.0
2017-Jun-16 17:01N 59°53' E 030°13'0 0.0
2017-Jun-16 16:30N 59°53' E 030°13'0 0.0
2017-Jun-16 16:01N 59°53' E 030°13'0 0.0
2017-Jun-16 15:31N 59°53' E 030°13'0 0.0
2017-Jun-16 15:01N 59°53' E 030°13'0 0.0
2017-Jun-16 14:31N 59°53' E 030°13'0 0.0
2017-Jun-16 13:31N 59°53' E 030°13'0 0.0
2017-Jun-16 13:00N 59°53' E 030°13'0 0.0
2017-Jun-16 12:30N 59°53' E 030°13'0 0.0
2017-Jun-16 12:00N 59°53' E 030°13'0 0.0
2017-Jun-16 11:31N 59°53' E 030°13'0 0.1
2017-Jun-16 11:00N 59°53' E 030°13'1 1.3
2017-Jun-16 10:31N 59°53' E 030°13'0 0.0
2017-Jun-16 10:01N 59°53' E 030°13'0 0.0
2017-Jun-16 09:30N 59°53' E 030°13'0 0.0
2017-Jun-16 09:01N 59°53' E 030°13'0 0.0
2017-Jun-16 08:30N 59°53' E 030°13'0 0.0
2017-Jun-16 08:00N 59°53' E 030°13'0 0.0
2017-Jun-16 07:31N 59°53' E 030°13'0 0.0
2017-Jun-16 07:01N 59°53' E 030°13'0 0.0
2017-Jun-16 06:31N 59°53' E 030°13'0 0.0
2017-Jun-16 06:00N 59°53' E 030°13'0 0.0
2017-Jun-16 05:30N 59°53' E 030°13'1 1.3
2017-Jun-16 05:00N 59°53' E 030°13'0 0.0
2017-Jun-16 04:30N 59°53' E 030°13'0 0.0
2017-Jun-16 04:01N 59°53' E 030°13'0 0.0
2017-Jun-16 03:30N 59°53' E 030°13'0 0.0
2017-Jun-16 03:01N 59°53' E 030°13'0 0.0
2017-Jun-16 02:30N 59°53' E 030°13'0 0.0
2017-Jun-16 02:01N 59°53' E 030°13'0 0.0
2017-Jun-16 01:30N 59°53' E 030°13'0 0.0
2017-Jun-16 01:01N 59°53' E 030°13'0 0.0
2017-Jun-16 00:31N 59°53' E 030°13'0 0.0
2017-Jun-16 00:00N 59°53' E 030°13'0 0.0
2017-Jun-15 23:31N 59°53' E 030°13'0 0.0
2017-Jun-15 23:00N 59°53' E 030°13'0 0.0
2017-Jun-15 22:31N 59°53' E 030°13'0 0.0
2017-Jun-15 22:01N 59°53' E 030°13'0 0.0
2017-Jun-15 21:30N 59°53' E 030°13'0 0.0
2017-Jun-15 21:00N 59°53' E 030°13'0 0.0
2017-Jun-15 20:30N 59°53' E 030°13'0 0.0
2017-Jun-15 20:01N 59°53' E 030°13'0 0.0
2017-Jun-15 19:31N 59°53' E 030°13'0 0.0
2017-Jun-15 19:00N 59°53' E 030°13'0 0.0
2017-Jun-15 18:31N 59°53' E 030°13'0 0.0
2017-Jun-15 18:00N 59°53' E 030°13'0 0.0
2017-Jun-15 17:31N 59°53' E 030°13'0 0.0
2017-Jun-15 17:01N 59°53' E 030°13'0 0.0
2017-Jun-15 16:31N 59°53' E 030°13'1 1.4
2017-Jun-15 16:01N 59°53' E 030°12'2 4.4
2017-Jun-15 15:31N 59°55' E 030°12'3 5.9
2017-Jun-15 15:00N 59°57' E 030°07'2 4.4
2017-Jun-15 14:30N 59°57' E 030°11'0 0.0
2017-Jun-15 13:30N 59°57' E 030°11'0 0.0
2017-Jun-15 13:00N 59°57' E 030°11'0 0.0
2017-Jun-15 12:30N 59°57' E 030°11'0 0.0
2017-Jun-15 12:00N 59°57' E 030°11'0 0.0
2017-Jun-15 11:30N 59°57' E 030°11'0 0.0
2017-Jun-15 11:00N 59°57' E 030°11'0 0.0
2017-Jun-15 10:30N 59°57' E 030°11'0 0.0
2017-Jun-15 10:00N 59°57' E 030°11'0 0.0
2017-Jun-15 09:30N 59°57' E 030°11'0 0.0
2017-Jun-15 09:00N 59°57' E 030°11'0 0.0
2017-Jun-15 08:30N 59°57' E 030°11'0 0.0
2017-Jun-15 08:00N 59°57' E 030°11'0 0.0
2017-Jun-15 07:30N 59°57' E 030°11'0 0.0
2017-Jun-15 07:00N 59°57' E 030°11'0 0.0
2017-Jun-15 06:31N 59°57' E 030°11'1 2.8
2017-Jun-15 06:01N 59°57' E 030°08'5 9.3
2017-Jun-15 05:31N 59°55' E 029°60'5 9.0
2017-Jun-15 05:00N 59°57' E 029°52'0 0.1
2017-Jun-15 04:30N 59°57' E 029°51'0 0.0
2017-Jun-15 04:00N 59°57' E 029°51'0 0.0
2017-Jun-15 03:30N 59°57' E 029°51'0 0.0
2017-Jun-15 03:01N 59°57' E 029°51'0 0.0
2017-Jun-15 02:24N 59°57' E 029°51'0 0.0
2017-Jun-15 02:01N 59°57' E 029°51'0 0.0
2017-Jun-15 01:30N 59°57' E 029°51'0 0.0
2017-Jun-15 00:58N 59°57' E 029°51'0 0.0
2017-Jun-14 22:49N 59°57' E 029°51'0 0.0
2017-Jun-14 22:18N 59°57' E 029°51'0 0.0
2017-Jun-14 22:00N 59°57' E 029°51'0 0.0
2017-Jun-14 21:30N 59°57' E 029°52'0 0.0
2017-Jun-14 21:00N 59°57' E 029°52'0 0.0
2017-Jun-14 20:30N 59°57' E 029°52'0 0.0
2017-Jun-14 20:01N 59°57' E 029°52'0 0.0
2017-Jun-14 19:30N 59°57' E 029°52'0 0.0
2017-Jun-14 19:00N 59°57' E 029°52'1 1.1
2017-Jun-14 18:30N 59°57' E 029°52'5 9.6
2017-Jun-14 18:01N 59°55' E 030°01'4 8.6
2017-Jun-14 17:30N 59°53' E 030°09'2 4.7
2017-Jun-14 17:00N 59°53' E 030°13'0 0.0
2017-Jun-14 16:31N 59°53' E 030°13'0 0.0
2017-Jun-14 16:00N 59°53' E 030°13'0 0.0
2017-Jun-14 15:31N 59°53' E 030°13'0 0.0
2017-Jun-14 15:01N 59°53' E 030°13'0 0.0
2017-Jun-14 14:00N 59°53' E 030°13'0 0.0
2017-Jun-14 13:30N 59°53' E 030°13'0 0.0
2017-Jun-14 13:01N 59°53' E 030°13'0 0.0
2017-Jun-14 12:31N 59°53' E 030°13'0 0.0
2017-Jun-14 12:00N 59°53' E 030°13'0 0.0
2017-Jun-14 11:30N 59°53' E 030°13'0 0.0
2017-Jun-14 11:00N 59°53' E 030°13'0 0.0
2017-Jun-14 10:31N 59°53' E 030°13'0 0.0
2017-Jun-14 10:00N 59°53' E 030°13'0 0.0
2017-Jun-14 09:31N 59°53' E 030°13'0 0.0
2017-Jun-14 09:00N 59°53' E 030°13'0 0.0
2017-Jun-14 08:30N 59°53' E 030°13'0 0.0
2017-Jun-14 08:01N 59°53' E 030°13'0 0.0
2017-Jun-14 07:31N 59°53' E 030°13'0 0.0
2017-Jun-14 07:00N 59°53' E 030°13'0 0.0
2017-Jun-14 06:31N 59°53' E 030°13'0 0.0
2017-Jun-14 05:59N 59°53' E 030°13'0 0.0
2017-Jun-14 05:30N 59°53' E 030°13'0 0.2
2017-Jun-14 05:00N 59°53' E 030°13'0 0.0
2017-Jun-14 04:31N 59°53' E 030°13'0 0.0
2017-Jun-14 04:01N 59°53' E 030°13'0 0.0
2017-Jun-14 03:30N 59°53' E 030°13'0 0.0
2017-Jun-14 02:59N 59°53' E 030°13'0 0.0
2017-Jun-14 02:31N 59°53' E 030°13'0 0.0
2017-Jun-14 02:00N 59°53' E 030°13'  

Dump ship's entire track history